Time;durP1;ratioP1;P1;durP2;ratioP2;P2;SDS_P1;SDS_P2;PMS_P1;PMS_P2;Temp;Humidity;BMP_temperature;BMP_pressure;BME280_temperature;BME280_humidity;BME280_pressure;Samples;Min_cycle;Max_cycle;Signal;HPM_P1;HPM_P2
2023/03/14 14:47:19;;;;;;;;;;;20.40;98.50;;;;;;5071063;28;20278;-73
2023/03/14 14:49:47;;;;;;;;;;;20.40;98.50;;;;;;5071504;28;20020;-73
2023/03/14 14:52:15;;;;;;;;;;;20.30;98.50;;;;;;5054325;28;20007;-73
2023/03/14 14:54:46;;;;;;;;;;;20.40;98.50;;;;;;5048606;28;19924;-73
2023/03/14 14:57:28;;;;;;;;;;;20.40;98.50;;;;;;5030689;28;19920;-74
2023/03/14 15:00:00;;;;;;;;;;;20.40;98.50;;;;;;5034221;28;19920;-73
2023/03/14 15:02:28;;;;;;;;;;;20.40;98.50;;;;;;5032335;28;19935;-74
2023/03/14 15:04:55;;;;;;;;;;;20.40;98.50;;;;;;5031823;28;20407;-73
2023/03/14 15:07:22;;;;;;;;;;;20.40;98.50;;;;;;5051244;28;19923;-74
2023/03/14 15:09:48;;;;;;;;;;;20.40;98.50;;;;;;5051823;28;19916;-74
2023/03/14 15:12:15;;;;;;;;;;;20.50;98.50;;;;;;5052352;28;20464;-74
2023/03/14 15:14:42;;;;;;;;;;;20.40;98.50;;;;;;5051826;28;20078;-72
2023/03/14 15:17:12;;;;;;;;;;;20.40;98.50;;;;;;5052202;28;20450;-73
2023/03/14 15:19:38;;;;;;;;;;;20.40;98.50;;;;;;5052327;28;19963;-74
2023/03/14 15:22:06;;;;;;;;;;;20.40;98.50;;;;;;5052115;28;20383;-74
2023/03/14 15:24:32;;;;;;;;;;;20.40;98.50;;;;;;5034658;28;20011;-74
2023/03/14 15:26:59;;;;;;;;;;;20.30;98.50;;;;;;5051612;28;19909;-74
2023/03/14 15:29:26;;;;;;;;;;;20.30;98.50;;;;;;5052165;28;19920;-74
2023/03/14 15:31:53;;;;;;;;;;;20.40;98.50;;;;;;5052156;28;19909;-73
2023/03/14 15:34:19;;;;;;;;;;;20.30;98.40;;;;;;5052049;28;19913;-74
2023/03/14 15:36:46;;;;;;;;;;;20.30;98.50;;;;;;5051185;28;19936;-74
2023/03/14 15:39:13;;;;;;;;;;;20.30;98.50;;;;;;5051703;28;20011;-73
2023/03/14 15:41:39;;;;;;;;;;;20.30;98.50;;;;;;5049078;28;20008;-74
2023/03/14 15:44:06;;;;;;;;;;;20.30;98.40;;;;;;5049249;28;19996;-74
2023/03/14 15:46:33;;;;;;;;;;;20.30;98.40;;;;;;5051331;28;20441;-74
2023/03/14 15:49:00;;;;;;;;;;;20.20;98.40;;;;;;5050599;28;19920;-73
2023/03/14 15:51:26;;;;;;;;;;;20.20;98.40;;;;;;5050424;28;19985;-74
2023/03/14 15:53:53;;;;;;;;;;;20.20;98.40;;;;;;5051892;28;20367;-74
2023/03/14 15:56:20;;;;;;;;;;;20.20;98.40;;;;;;5050229;28;20391;-73
2023/03/14 15:58:46;;;;;;;;;;;20.20;98.40;;;;;;5050381;28;19913;-74
2023/03/14 16:01:15;;;;;;;;;;;20.20;98.40;;;;;;5050720;28;19916;-73
2023/03/14 16:03:43;;;;;;;;;;;20.20;98.40;;;;;;5048958;28;19913;-73
2023/03/14 16:06:10;;;;;;;;;;;20.20;98.40;;;;;;5048046;28;19944;-74
2023/03/14 16:08:37;;;;;;;;;;;20.10;98.30;;;;;;5049589;28;20375;-73
2023/03/14 16:11:04;;;;;;;;;;;20.10;98.40;;;;;;5051141;28;19917;-74
2023/03/14 16:13:31;;;;;;;;;;;20.10;98.30;;;;;;5050464;28;19967;-73
2023/03/14 16:15:59;;;;;;;;;;;20.00;98.30;;;;;;5050728;28;19982;-73
2023/03/14 16:18:27;;;;;;;;;;;20.00;98.30;;;;;;5051658;28;20379;-74
2023/03/14 16:21:07;;;;;;;;;;;20.10;98.30;;;;;;5049674;28;20349;-74
2023/03/14 16:23:33;;;;;;;;;;;20.00;98.30;;;;;;5038285;28;19936;-73
2023/03/14 16:26:03;;;;;;;;;;;20.00;98.30;;;;;;5049204;28;19956;-74
2023/03/14 16:28:29;;;;;;;;;;;20.00;98.30;;;;;;5045238;28;20345;-74
2023/03/14 16:31:03;;;;;;;;;;;20.00;98.30;;;;;;5049344;28;19913;-74
2023/03/14 16:33:30;;;;;;;;;;;20.00;98.30;;;;;;5050107;28;19948;-73
2023/03/14 16:35:57;;;;;;;;;;;20.00;98.30;;;;;;5049763;28;20381;-74
2023/03/14 16:38:24;;;;;;;;;;;20.00;98.30;;;;;;5049763;28;19959;-74
2023/03/14 16:41:01;;;;;;;;;;;20.00;98.30;;;;;;5050387;28;19917;-73
2023/03/14 16:43:28;;;;;;;;;;;20.00;98.30;;;;;;5048176;28;20375;-74
2023/03/14 16:45:56;;;;;;;;;;;20.00;98.30;;;;;;5044958;28;19925;-74
2023/03/14 16:48:23;;;;;;;;;;;20.00;98.20;;;;;;5050560;28;19913;-74
2023/03/14 16:50:50;;;;;;;;;;;19.90;98.20;;;;;;5050626;28;19994;-74
2023/03/14 16:53:17;;;;;;;;;;;20.00;98.30;;;;;;5053979;28;20286;-74
2023/03/14 16:55:44;;;;;;;;;;;19.90;98.30;;;;;;5053372;28;19974;-74
2023/03/14 16:58:11;;;;;;;;;;;19.90;98.20;;;;;;5054149;28;19909;-74
2023/03/14 17:00:37;;;;;;;;;;;19.90;98.20;;;;;;5053178;28;19920;-74
2023/03/14 17:03:04;;;;;;;;;;;19.80;98.20;;;;;;5054070;28;19954;-73
2023/03/14 17:05:31;;;;;;;;;;;19.90;98.20;;;;;;5053627;28;20670;-74
2023/03/14 17:07:58;;;;;;;;;;;19.80;98.20;;;;;;5054051;28;19966;-73
2023/03/14 17:10:25;;;;;;;;;;;19.80;98.20;;;;;;5054766;28;20428;-73
2023/03/14 17:12:52;;;;;;;;;;;19.80;98.20;;;;;;5049796;28;19999;-74
2023/03/14 17:15:18;;;;;;;;;;;19.80;98.10;;;;;;5048096;28;20268;-74
2023/03/14 17:17:45;;;;;;;;;;;19.80;98.10;;;;;;5054196;28;20042;-74
2023/03/14 17:20:12;;;;;;;;;;;19.70;98.10;;;;;;5054466;28;19932;-74
2023/03/14 17:22:38;;;;;;;;;;;19.70;98.10;;;;;;5054380;28;19944;-73
2023/03/14 17:25:05;;;;;;;;;;;19.70;98.10;;;;;;5052357;28;19971;-73
2023/03/14 17:27:34;;;;;;;;;;;19.70;98.10;;;;;;5054145;28;19909;-74
2023/03/14 17:30:02;;;;;;;;;;;19.70;98.10;;;;;;5053931;28;20352;-74
2023/03/14 17:32:29;;;;;;;;;;;19.60;97.90;;;;;;5053639;28;19920;-74
2023/03/14 17:34:55;;;;;;;;;;;19.60;98.00;;;;;;5053422;28;20451;-73
2023/03/14 17:37:22;;;;;;;;;;;19.60;98.00;;;;;;5053136;28;19917;-73
2023/03/14 17:39:49;;;;;;;;;;;19.50;97.90;;;;;;5051756;28;19923;-73
2023/03/14 17:42:15;;;;;;;;;;;19.60;98.00;;;;;;5054149;28;19913;-74
2023/03/14 17:44:42;;;;;;;;;;;19.60;98.00;;;;;;5051830;28;20333;-73
2023/03/14 17:47:09;;;;;;;;;;;19.60;98.00;;;;;;5052961;28;19921;-73
2023/03/14 17:49:37;;;;;;;;;;;19.60;98.00;;;;;;5047644;28;19913;-73
2023/03/14 17:52:07;;;;;;;;;;;19.50;97.90;;;;;;5053203;28;19909;-73
2023/03/14 17:54:34;;;;;;;;;;;19.60;98.00;;;;;;5052455;28;19920;-73
2023/03/14 17:57:00;;;;;;;;;;;19.50;97.90;;;;;;5053075;28;19959;-73
2023/03/14 17:59:27;;;;;;;;;;;19.50;97.90;;;;;;5053291;28;19913;-73
2023/03/14 18:01:54;;;;;;;;;;;19.50;97.80;;;;;;5051341;28;19916;-73
2023/03/14 18:04:21;;;;;;;;;;;19.50;97.80;;;;;;5050671;28;19939;-73
2023/03/14 18:06:47;;;;;;;;;;;19.50;97.90;;;;;;5050500;28;19909;-73
2023/03/14 18:09:14;;;;;;;;;;;19.50;97.90;;;;;;5046991;28;19912;-73
2023/03/14 18:11:41;;;;;;;;;;;19.50;97.90;;;;;;5050306;28;19916;-71
2023/03/14 18:14:08;;;;;;;;;;;19.60;97.90;;;;;;5050566;28;19916;-72
2023/03/14 18:16:35;;;;;;;;;;;19.50;97.80;;;;;;5045937;28;19998;-73
2023/03/14 18:19:02;;;;;;;;;;;19.60;97.90;;;;;;5048199;28;19916;-74
2023/03/14 18:21:29;;;;;;;;;;;19.50;97.80;;;;;;5048328;28;20330;-72
2023/03/14 18:23:56;;;;;;;;;;;19.50;97.80;;;;;;5047564;28;20206;-73
2023/03/14 18:26:26;;;;;;;;;;;19.50;97.80;;;;;;5050497;28;20021;-73
2023/03/14 18:28:53;;;;;;;;;;;19.50;97.70;;;;;;5048999;28;20396;-73
2023/03/14 18:31:23;;;;;;;;;;;19.40;97.60;;;;;;5049691;28;19994;-73
2023/03/14 18:33:51;;;;;;;;;;;19.40;97.60;;;;;;5049471;28;19920;-73
2023/03/14 18:36:18;;;;;;;;;;;19.40;97.60;;;;;;5047467;28;19995;-73
2023/03/14 18:38:45;;;;;;;;;;;19.40;97.60;;;;;;5048649;28;20429;-72
2023/03/14 18:41:12;;;;;;;;;;;19.40;97.70;;;;;;5048740;28;19917;-72
2023/03/14 18:43:39;;;;;;;;;;;19.50;97.70;;;;;;5049898;28;19912;-73
2023/03/14 18:46:06;;;;;;;;;;;19.50;97.70;;;;;;5048509;28;19921;-72
2023/03/14 18:48:33;;;;;;;;;;;19.50;97.60;;;;;;5048630;28;19916;-74
2023/03/14 18:50:59;;;;;;;;;;;19.50;97.70;;;;;;5041742;28;19920;-73
2023/03/14 18:53:30;;;;;;;;;;;19.50;97.70;;;;;;5050090;28;19924;-73
2023/03/14 18:55:58;;;;;;;;;;;19.40;97.60;;;;;;5048567;28;19932;-74
2023/03/14 18:58:27;;;;;;;;;;;19.40;97.50;;;;;;5048673;28;20315;-75
2023/03/14 19:00:57;;;;;;;;;;;19.40;97.50;;;;;;5049407;28;19916;-75
2023/03/14 19:03:26;;;;;;;;;;;19.30;97.40;;;;;;5048717;28;19935;-75
2023/03/14 19:05:53;;;;;;;;;;;19.30;97.40;;;;;;5045522;28;19917;-73
2023/03/14 19:08:22;;;;;;;;;;;19.30;97.40;;;;;;5049051;28;19917;-77
2023/03/14 19:10:49;;;;;;;;;;;19.30;97.40;;;;;;5049996;28;19913;-77
2023/03/14 19:13:16;;;;;;;;;;;19.30;97.30;;;;;;5049273;28;20244;-76
2023/03/14 19:15:43;;;;;;;;;;;19.30;97.30;;;;;;5047940;28;20279;-77
2023/03/14 19:18:10;;;;;;;;;;;19.30;97.30;;;;;;5048913;28;19921;-75
2023/03/14 19:20:37;;;;;;;;;;;19.30;97.30;;;;;;5050125;28;19909;-77
2023/03/14 19:23:04;;;;;;;;;;;19.30;97.30;;;;;;5048395;28;19912;-77
2023/03/14 19:25:30;;;;;;;;;;;19.30;97.30;;;;;;5046187;28;20279;-74
2023/03/14 19:27:57;;;;;;;;;;;19.30;97.30;;;;;;5048985;28;19913;-76
2023/03/14 19:30:24;;;;;;;;;;;19.30;97.30;;;;;;5049669;28;20362;-77
2023/03/14 19:32:50;;;;;;;;;;;19.20;97.30;;;;;;5049747;28;19917;-76
2023/03/14 19:35:17;;;;;;;;;;;19.30;97.30;;;;;;5046401;28;20345;-76
2023/03/14 19:37:46;;;;;;;;;;;19.30;97.40;;;;;;5049224;28;19991;-77
2023/03/14 19:40:13;;;;;;;;;;;19.30;97.30;;;;;;5049038;28;19909;-75
2023/03/14 19:42:40;;;;;;;;;;;19.40;97.40;;;;;;5031350;28;19995;-76
2023/03/14 19:45:07;;;;;;;;;;;19.30;97.30;;;;;;5047920;28;19925;-74
2023/03/14 19:47:34;;;;;;;;;;;19.40;97.30;;;;;;5049204;28;19920;-76
2023/03/14 19:50:00;;;;;;;;;;;19.30;97.20;;;;;;5047162;28;20438;-72
2023/03/14 19:52:27;;;;;;;;;;;19.30;97.10;;;;;;5047472;28;19921;-73
2023/03/14 19:54:54;;;;;;;;;;;19.30;97.10;;;;;;5046732;28;19920;-74
2023/03/14 19:57:21;;;;;;;;;;;19.30;97.20;;;;;;5048468;28;19917;-73
2023/03/14 19:59:48;;;;;;;;;;;19.30;97.20;;;;;;5048963;28;19917;-74
2023/03/14 20:02:15;;;;;;;;;;;19.30;97.20;;;;;;5048306;28;19913;-75
2023/03/14 20:04:45;;;;;;;;;;;19.30;97.10;;;;;;5044489;28;20350;-75
2023/03/14 20:07:12;;;;;;;;;;;19.40;97.10;;;;;;5042554;28;19917;-75
2023/03/14 20:09:39;;;;;;;;;;;19.30;97.00;;;;;;5045460;28;19913;-75
2023/03/14 20:12:06;;;;;;;;;;;19.40;97.00;;;;;;5030450;28;20256;-75
2023/03/14 20:14:33;;;;;;;;;;;19.40;97.00;;;;;;5040400;28;19928;-75
2023/03/14 20:17:00;;;;;;;;;;;19.40;97.00;;;;;;5047443;28;19958;-74
2023/03/14 20:19:26;;;;;;;;;;;19.40;97.00;;;;;;5048053;28;20324;-68
2023/03/14 20:21:53;;;;;;;;;;;19.50;97.10;;;;;;5049681;28;20397;-70
2023/03/14 20:24:20;;;;;;;;;;;19.50;97.00;;;;;;5051988;28;19916;-71
2023/03/14 20:26:47;;;;;;;;;;;19.50;97.10;;;;;;5053003;28;20059;-70
2023/03/14 20:29:14;;;;;;;;;;;19.50;97.10;;;;;;5054733;28;19916;-70
2023/03/14 20:31:41;;;;;;;;;;;19.60;97.00;;;;;;5054900;28;20386;-69
2023/03/14 20:34:08;;;;;;;;;;;19.60;97.00;;;;;;5051513;28;20344;-69
2023/03/14 20:36:35;;;;;;;;;;;19.70;97.00;;;;;;5053541;28;19951;-70
2023/03/14 20:39:02;;;;;;;;;;;19.70;97.00;;;;;;5052649;28;19956;-70
2023/03/14 20:41:28;;;;;;;;;;;19.70;97.00;;;;;;5053784;28;19916;-70
2023/03/14 20:43:55;;;;;;;;;;;19.80;97.00;;;;;;5053325;28;19912;-70
2023/03/14 20:46:22;;;;;;;;;;;19.80;97.00;;;;;;5048278;28;19952;-70
2023/03/14 20:48:48;;;;;;;;;;;19.80;96.90;;;;;;5047368;28;19956;-70
2023/03/14 20:51:16;;;;;;;;;;;19.80;96.90;;;;;;5054725;28;19915;-77
2023/03/14 20:53:44;;;;;;;;;;;19.80;96.80;;;;;;5050460;28;19913;-77
2023/03/14 20:56:10;;;;;;;;;;;19.80;96.80;;;;;;5034892;28;20044;-77
2023/03/14 20:58:38;;;;;;;;;;;19.80;96.80;;;;;;5036353;28;20290;-70
2023/03/14 21:01:04;;;;;;;;;;;19.90;96.80;;;;;;5050527;28;19909;-77
2023/03/14 21:03:31;;;;;;;;;;;19.90;96.70;;;;;;5053808;28;19919;-76
2023/03/14 21:05:58;;;;;;;;;;;19.90;96.70;;;;;;5053378;28;19913;-77
2023/03/14 21:08:25;;;;;;;;;;;19.90;96.70;;;;;;5044421;28;19925;-76
2023/03/14 21:10:53;;;;;;;;;;;19.90;96.70;;;;;;5049915;28;19919;-76
2023/03/14 21:13:20;;;;;;;;;;;19.90;96.60;;;;;;5036800;28;19916;-76
2023/03/14 21:15:46;;;;;;;;;;;19.90;96.50;;;;;;5019471;28;19971;-76
2023/03/14 21:18:14;;;;;;;;;;;19.90;96.60;;;;;;5052574;28;19913;-76
2023/03/14 21:20:41;;;;;;;;;;;19.90;96.50;;;;;;5036917;28;19966;-76
2023/03/14 21:23:08;;;;;;;;;;;19.90;96.50;;;;;;5035893;28;19982;-76
2023/03/14 21:25:34;;;;;;;;;;;20.00;96.60;;;;;;5033135;28;19919;-76
2023/03/14 21:28:04;;;;;;;;;;;20.00;96.60;;;;;;5050256;28;20329;-76
2023/03/14 21:30:31;;;;;;;;;;;20.00;96.60;;;;;;5036843;28;19913;-76
2023/03/14 21:32:58;;;;;;;;;;;20.10;96.50;;;;;;5052989;28;19917;-76
2023/03/14 21:35:25;;;;;;;;;;;20.10;96.50;;;;;;5052336;28;19935;-76
2023/03/14 21:37:52;;;;;;;;;;;20.10;96.50;;;;;;5036269;28;19909;-76
2023/03/14 21:40:19;;;;;;;;;;;20.20;96.60;;;;;;5053847;28;19923;-76
2023/03/14 21:42:46;;;;;;;;;;;20.20;96.60;;;;;;5053906;28;19908;-76
2023/03/14 21:45:15;;;;;;;;;;;20.30;96.50;;;;;;5036185;28;19912;-76
2023/03/14 21:47:46;;;;;;;;;;;20.30;96.50;;;;;;5054259;28;19916;-76
2023/03/14 21:50:16;;;;;;;;;;;20.40;96.50;;;;;;5036074;28;19915;-80
2023/03/14 21:52:45;;;;;;;;;;;20.40;96.40;;;;;;5018473;28;19913;-78
2023/03/14 21:55:16;;;;;;;;;;;20.40;96.20;;;;;;5036505;28;19967;-77
2023/03/14 21:57:43;;;;;;;;;;;20.40;96.10;;;;;;5054299;28;19928;-78
2023/03/14 22:00:11;;;;;;;;;;;20.50;96.20;;;;;;5051862;28;19925;-78
2023/03/14 22:02:38;;;;;;;;;;;20.50;96.30;;;;;;5054117;28;19919;-78
2023/03/14 22:05:05;;;;;;;;;;;20.60;96.30;;;;;;5035853;28;20309;-78
2023/03/14 22:15:34;;;;;;;;;;;20.80;96.40;;;;;;5048898;28;19935;-77
2023/03/14 22:18:00;;;;;;;;;;;20.90;96.40;;;;;;5073893;28;19916;-77
2023/03/14 22:20:27;;;;;;;;;;;20.90;96.30;;;;;;5066176;28;19960;-77
2023/03/14 22:22:54;;;;;;;;;;;20.90;96.20;;;;;;5058252;28;19995;-78
2023/03/14 22:25:21;;;;;;;;;;;21.00;96.10;;;;;;5059645;28;20431;-75
2023/03/14 22:27:47;;;;;;;;;;;21.00;96.10;;;;;;5059562;28;19913;-76
2023/03/14 22:30:14;;;;;;;;;;;21.10;96.30;;;;;;5056898;28;20367;-76
2023/03/14 22:32:41;;;;;;;;;;;21.10;95.80;;;;;;5059912;28;19969;-76
2023/03/14 22:35:08;;;;;;;;;;;21.20;95.80;;;;;;5049129;28;20220;-77
2023/03/14 22:37:35;;;;;;;;;;;21.30;95.80;;;;;;5052574;28;19913;-78
2023/03/14 22:40:02;;;;;;;;;;;21.30;95.30;;;;;;5050936;28;20003;-77
2023/03/14 22:42:29;;;;;;;;;;;21.20;94.40;;;;;;5056466;28;19908;-77
2023/03/14 22:44:55;;;;;;;;;;;21.30;94.70;;;;;;5055113;28;19916;-78
2023/03/14 22:47:22;;;;;;;;;;;21.30;94.50;;;;;;5059731;28;19927;-76
2023/03/14 22:49:49;;;;;;;;;;;21.40;95.20;;;;;;5067856;28;20314;-76
2023/03/14 22:52:15;;;;;;;;;;;21.50;95.20;;;;;;5069181;28;19912;-76
2023/03/14 22:54:42;;;;;;;;;;;21.60;95.10;;;;;;5069015;28;19921;-76
2023/03/14 22:57:09;;;;;;;;;;;21.60;95.20;;;;;;5068648;28;19912;-76
2023/03/14 22:59:35;;;;;;;;;;;21.70;95.20;;;;;;5069006;28;19999;-76
2023/03/14 23:02:02;;;;;;;;;;;21.70;94.90;;;;;;5069146;28;19909;-76
2023/03/14 23:04:29;;;;;;;;;;;21.80;95.10;;;;;;5072006;28;19909;-76
2023/03/14 23:06:56;;;;;;;;;;;21.80;94.60;;;;;;5072160;28;19905;-76
2023/03/14 23:09:22;;;;;;;;;;;21.90;94.70;;;;;;5072098;28;19948;-76
2023/03/14 23:11:49;;;;;;;;;;;22.00;94.80;;;;;;5072195;28;19908;-76
2023/03/14 23:14:16;;;;;;;;;;;22.10;95.00;;;;;;5072643;28;19999;-75
2023/03/14 23:16:47;;;;;;;;;;;22.10;94.60;;;;;;5100556;22;20495;-68
2023/03/14 23:19:13;;;;;;;;;;;22.10;94.50;;;;;;5091722;28;19912;-68
2023/03/14 23:21:40;;;;;;;;;;;22.10;93.90;;;;;;5092568;28;19908;-68
2023/03/14 23:24:07;;;;;;;;;;;22.00;92.60;;;;;;5092222;28;19962;-68
2023/03/14 23:26:34;;;;;;;;;;;22.10;93.90;;;;;;5092102;28;20282;-68
2023/03/14 23:29:01;;;;;;;;;;;22.20;93.40;;;;;;5092343;28;19908;-68
2023/03/14 23:31:27;;;;;;;;;;;22.20;93.60;;;;;;5092004;28;19908;-68
2023/03/14 23:33:54;;;;;;;;;;;22.20;93.10;;;;;;5092245;28;19915;-68
2023/03/14 23:36:21;;;;;;;;;;;22.30;93.80;;;;;;5092104;28;19916;-68
2023/03/14 23:38:48;;;;;;;;;;;22.30;93.70;;;;;;5092542;28;19938;-68
2023/03/14 23:41:14;;;;;;;;;;;22.30;93.80;;;;;;5084308;28;19930;-72
2023/03/14 23:43:42;;;;;;;;;;;22.40;93.80;;;;;;5078706;28;19918;-71
2023/03/14 23:46:09;;;;;;;;;;;22.40;93.50;;;;;;5081613;28;19927;-69
2023/03/14 23:48:35;;;;;;;;;;;22.40;93.00;;;;;;5071547;28;19958;-71
2023/03/14 23:51:03;;;;;;;;;;;22.40;93.20;;;;;;5071290;28;19908;-71
2023/03/14 23:53:30;;;;;;;;;;;22.50;93.40;;;;;;5059205;28;20007;-67
2023/03/14 23:55:57;;;;;;;;;;;22.60;93.40;;;;;;5073812;28;20259;-68
2023/03/14 23:58:23;;;;;;;;;;;22.50;92.70;;;;;;5074456;28;20383;-68
